sensor_id;sensor_type;location;lat;lon;timestamp;pressure;altitude;pressure_sealevel;temperature;humidity
39267;BME280;24967;51.154;13.812;2023-03-20T00:00:04;99524.63;;;12.44;78.97
39267;BME280;24967;51.154;13.812;2023-03-20T00:02:33;99525.00;;;12.65;78.38
39267;BME280;24967;51.154;13.812;2023-03-20T00:05:00;99525.16;;;12.64;77.80
39267;BME280;24967;51.154;13.812;2023-03-20T00:07:26;99529.63;;;12.55;78.09
39267;BME280;24967;51.154;13.812;2023-03-20T00:09:53;99524.78;;;12.58;77.73
39267;BME280;24967;51.154;13.812;2023-03-20T00:12:23;99532.88;;;12.83;76.79
39267;BME280;24967;51.154;13.812;2023-03-20T00:14:51;99528.34;;;13.00;75.80
39267;BME280;24967;51.154;13.812;2023-03-20T00:17:19;99531.34;;;12.97;75.67
39267;BME280;24967;51.154;13.812;2023-03-20T00:19:46;99527.53;;;12.83;76.22
39267;BME280;24967;51.154;13.812;2023-03-20T00:22:12;99523.47;;;12.71;76.48
39267;BME280;24967;51.154;13.812;2023-03-20T00:24:38;99527.28;;;12.52;77.35
39267;BME280;24967;51.154;13.812;2023-03-20T00:27:05;99533.78;;;12.49;77.17
39267;BME280;24967;51.154;13.812;2023-03-20T00:29:33;99532.38;;;12.21;78.12
39267;BME280;24967;51.154;13.812;2023-03-20T00:31:59;99530.03;;;12.18;78.55
39267;BME280;24967;51.154;13.812;2023-03-20T00:34:27;99527.06;;;12.29;78.24
39267;BME280;24967;51.154;13.812;2023-03-20T00:36:55;99533.69;;;12.17;78.06
39267;BME280;24967;51.154;13.812;2023-03-20T00:39:22;99525.88;;;12.23;77.81
39267;BME280;24967;51.154;13.812;2023-03-20T00:41:50;99538.53;;;12.21;77.83
39267;BME280;24967;51.154;13.812;2023-03-20T00:44:23;99534.56;;;12.33;77.52
39267;BME280;24967;51.154;13.812;2023-03-20T00:46:54;99529.44;;;12.48;76.61
39267;BME280;24967;51.154;13.812;2023-03-20T00:49:25;99525.94;;;12.40;76.65
39267;BME280;24967;51.154;13.812;2023-03-20T00:51:53;99528.66;;;12.56;75.63
39267;BME280;24967;51.154;13.812;2023-03-20T00:54:19;99525.16;;;12.64;74.99
39267;BME280;24967;51.154;13.812;2023-03-20T00:56:51;99522.78;;;12.52;75.22
39267;BME280;24967;51.154;13.812;2023-03-20T00:59:22;99528.94;;;12.45;75.48
39267;BME280;24967;51.154;13.812;2023-03-20T01:01:51;99530.13;;;12.50;75.19
39267;BME280;24967;51.154;13.812;2023-03-20T01:04:19;99531.28;;;12.48;74.81
39267;BME280;24967;51.154;13.812;2023-03-20T01:06:45;99533.66;;;12.59;74.76
39267;BME280;24967;51.154;13.812;2023-03-20T01:09:12;99525.44;;;12.44;74.38
39267;BME280;24967;51.154;13.812;2023-03-20T01:11:38;99530.06;;;12.34;75.25
39267;BME280;24967;51.154;13.812;2023-03-20T01:14:11;99523.13;;;12.41;74.84
39267;BME280;24967;51.154;13.812;2023-03-20T01:16:38;99533.88;;;12.23;74.90
39267;BME280;24967;51.154;13.812;2023-03-20T01:19:09;99531.31;;;12.56;73.92
39267;BME280;24967;51.154;13.812;2023-03-20T01:21:36;99515.47;;;12.54;74.50
39267;BME280;24967;51.154;13.812;2023-03-20T01:24:03;99518.31;;;12.61;73.61
39267;BME280;24967;51.154;13.812;2023-03-20T01:26:33;99520.50;;;12.66;73.41
39267;BME280;24967;51.154;13.812;2023-03-20T01:29:00;99524.94;;;12.49;74.02
39267;BME280;24967;51.154;13.812;2023-03-20T01:31:26;99521.97;;;12.44;73.75
39267;BME280;24967;51.154;13.812;2023-03-20T01:33:53;99522.13;;;12.58;73.39
39267;BME280;24967;51.154;13.812;2023-03-20T01:36:22;99517.97;;;12.48;73.78
39267;BME280;24967;51.154;13.812;2023-03-20T01:38:52;99523.75;;;12.43;73.92
39267;BME280;24967;51.154;13.812;2023-03-20T01:41:20;99519.28;;;12.44;73.76
39267;BME280;24967;51.154;13.812;2023-03-20T01:43:48;99521.59;;;12.38;73.44
39267;BME280;24967;51.154;13.812;2023-03-20T01:46:18;99517.78;;;12.41;73.57
39267;BME280;24967;51.154;13.812;2023-03-20T01:48:58;99517.63;;;12.51;73.32
39267;BME280;24967;51.154;13.812;2023-03-20T01:51:28;99525.44;;;12.44;72.93
39267;BME280;24967;51.154;13.812;2023-03-20T01:53:59;99522.59;;;12.46;72.72
39267;BME280;24967;51.154;13.812;2023-03-20T01:56:29;99520.44;;;12.41;72.62
39267;BME280;24967;51.154;13.812;2023-03-20T01:58:58;99525.44;;;12.44;72.28
39267;BME280;24967;51.154;13.812;2023-03-20T02:01:28;99518.75;;;12.40;72.62
39267;BME280;24967;51.154;13.812;2023-03-20T02:03:55;99520.28;;;12.43;72.20
39267;BME280;24967;51.154;13.812;2023-03-20T02:06:22;99510.25;;;12.36;72.61
39267;BME280;24967;51.154;13.812;2023-03-20T02:08:51;99527.06;;;12.29;73.66
39267;BME280;24967;51.154;13.812;2023-03-20T02:11:20;99515.56;;;12.28;73.61
39267;BME280;24967;51.154;13.812;2023-03-20T02:13:48;99517.91;;;12.23;73.16
39267;BME280;24967;51.154;13.812;2023-03-20T02:16:17;99512.88;;;12.20;73.14
39267;BME280;24967;51.154;13.812;2023-03-20T02:18:45;99521.38;;;12.24;72.86
39267;BME280;24967;51.154;13.812;2023-03-20T02:21:31;99519.03;;;12.21;73.04
39267;BME280;24967;51.154;13.812;2023-03-20T02:24:26;99516.34;;;12.12;73.20
39267;BME280;24967;51.154;13.812;2023-03-20T02:27:04;99522.69;;;12.11;73.40
39267;BME280;24967;51.154;13.812;2023-03-20T02:29:55;99525.06;;;12.23;74.04
39267;BME280;24967;51.154;13.812;2023-03-20T02:35:54;99520.75;;;11.87;76.01
39267;BME280;24967;51.154;13.812;2023-03-20T02:38:39;99521.88;;;11.85;76.20
39267;BME280;24967;51.154;13.812;2023-03-20T02:41:13;99523.91;;;11.91;76.08
39267;BME280;24967;51.154;13.812;2023-03-20T02:43:49;99523.22;;;11.89;76.64
39267;BME280;24967;51.154;13.812;2023-03-20T02:46:26;99517.66;;;11.74;77.27
39267;BME280;24967;51.154;13.812;2023-03-20T02:49:02;99521.97;;;11.75;77.06
39267;BME280;24967;51.154;13.812;2023-03-20T02:51:35;99519.78;;;11.70;77.35
39267;BME280;24967;51.154;13.812;2023-03-20T02:54:07;99524.03;;;11.55;78.18
39267;BME280;24967;51.154;13.812;2023-03-20T02:56:46;99522.81;;;11.23;79.88
39267;BME280;24967;51.154;13.812;2023-03-20T02:59:22;99523.19;;;11.29;80.28
39267;BME280;24967;51.154;13.812;2023-03-20T03:01:55;99522.53;;;11.09;81.21
39267;BME280;24967;51.154;13.812;2023-03-20T03:04:25;99521.50;;;11.02;81.71
39267;BME280;24967;51.154;13.812;2023-03-20T03:06:54;99516.47;;;11.42;79.69
39267;BME280;24967;51.154;13.812;2023-03-20T03:09:28;99516.59;;;11.15;80.74
39267;BME280;24967;51.154;13.812;2023-03-20T03:11:58;99515.88;;;11.31;80.03
39267;BME280;24967;51.154;13.812;2023-03-20T03:14:30;99513.72;;;11.34;80.08
39267;BME280;24967;51.154;13.812;2023-03-20T03:16:59;99515.88;;;11.31;80.11
39267;BME280;24967;51.154;13.812;2023-03-20T03:19:28;99520.06;;;11.33;79.81
39267;BME280;24967;51.154;13.812;2023-03-20T03:21:55;99515.75;;;11.32;79.74
39267;BME280;24967;51.154;13.812;2023-03-20T03:24:28;99510.50;;;11.49;79.10
39267;BME280;24967;51.154;13.812;2023-03-20T03:26:56;99517.59;;;11.40;79.31
39267;BME280;24967;51.154;13.812;2023-03-20T03:29:25;99513.63;;;11.70;78.18
39267;BME280;24967;51.154;13.812;2023-03-20T03:31:53;99513.75;;;11.60;78.33
39267;BME280;24967;51.154;13.812;2023-03-20T03:34:20;99513.16;;;11.49;78.97
39267;BME280;24967;51.154;13.812;2023-03-20T03:36:53;99516.91;;;11.64;78.22
39267;BME280;24967;51.154;13.812;2023-03-20T03:39:29;99520.41;;;11.64;77.99
39267;BME280;24967;51.154;13.812;2023-03-20T03:42:04;99530.22;;;11.64;78.28
39267;BME280;24967;51.154;13.812;2023-03-20T03:44:36;99516.91;;;11.64;77.88
39267;BME280;24967;51.154;13.812;2023-03-20T03:47:09;99520.16;;;11.50;78.33
39267;BME280;24967;51.154;13.812;2023-03-20T03:49:42;99521.78;;;11.68;77.75
39267;BME280;24967;51.154;13.812;2023-03-20T03:52:13;99521.28;;;11.73;77.42
39267;BME280;24967;51.154;13.812;2023-03-20T03:54:46;99515.19;;;11.81;77.13
39267;BME280;24967;51.154;13.812;2023-03-20T03:57:16;99518.28;;;11.68;77.53
39267;BME280;24967;51.154;13.812;2023-03-20T03:59:46;99516.84;;;11.56;78.37
39267;BME280;24967;51.154;13.812;2023-03-20T04:02:15;99525.28;;;11.69;77.32
39267;BME280;24967;51.154;13.812;2023-03-20T04:04:46;99520.88;;;11.86;76.57
39267;BME280;24967;51.154;13.812;2023-03-20T04:07:14;99523.22;;;11.89;76.54
39267;BME280;24967;51.154;13.812;2023-03-20T04:09:40;99522.25;;;11.64;77.18
39267;BME280;24967;51.154;13.812;2023-03-20T04:12:23;99521.03;;;11.84;76.43
39267;BME280;24967;51.154;13.812;2023-03-20T04:14:53;99520.16;;;12.02;75.91
39267;BME280;24967;51.154;13.812;2023-03-20T04:17:19;99526.63;;;11.99;75.53
39267;BME280;24967;51.154;13.812;2023-03-20T04:19:46;99522.31;;;11.98;75.43
39267;BME280;24967;51.154;13.812;2023-03-20T04:22:12;99530.13;;;12.00;75.57
39267;BME280;24967;51.154;13.812;2023-03-20T04:24:39;99520.19;;;11.84;75.85
39267;BME280;24967;51.154;13.812;2023-03-20T04:27:05;99525.44;;;11.94;75.79
39267;BME280;24967;51.154;13.812;2023-03-20T04:29:33;99526.06;;;11.87;75.82
39267;BME280;24967;51.154;13.812;2023-03-20T04:32:00;99527.59;;;11.90;75.87
39267;BME280;24967;51.154;13.812;2023-03-20T04:34:27;99534.28;;;11.76;75.94
39267;BME280;24967;51.154;13.812;2023-03-20T04:36:53;99533.09;;;11.97;75.53
39267;BME280;24967;51.154;13.812;2023-03-20T04:39:20;99537.31;;;11.81;75.72
39267;BME280;24967;51.154;13.812;2023-03-20T04:41:46;99533.94;;;11.97;75.23
39267;BME280;24967;51.154;13.812;2023-03-20T04:44:13;99524.00;;;12.15;74.42
39267;BME280;24967;51.154;13.812;2023-03-20T04:46:41;99528.19;;;12.18;74.60
39267;BME280;24967;51.154;13.812;2023-03-20T04:49:07;99535.31;;;12.01;74.66
39267;BME280;24967;51.154;13.812;2023-03-20T04:51:33;99532.69;;;11.83;75.21
39267;BME280;24967;51.154;13.812;2023-03-20T04:54:00;99539.63;;;11.76;75.66
39267;BME280;24967;51.154;13.812;2023-03-20T04:56:26;99535.88;;;11.61;76.23
39267;BME280;24967;51.154;13.812;2023-03-20T04:58:53;99540.00;;;11.55;76.87
39267;BME280;24967;51.154;13.812;2023-03-20T05:01:19;99544.09;;;11.50;77.03
39267;BME280;24967;51.154;13.812;2023-03-20T05:03:48;99541.25;;;11.43;77.38
39267;BME280;24967;51.154;13.812;2023-03-20T05:06:16;99550.81;;;11.54;76.83
39267;BME280;24967;51.154;13.812;2023-03-20T05:08:42;99556.56;;;11.41;77.56
39267;BME280;24967;51.154;13.812;2023-03-20T05:11:08;99547.50;;;11.34;78.10
39267;BME280;24967;51.154;13.812;2023-03-20T05:13:35;99549.91;;;11.45;77.92
39267;BME280;24967;51.154;13.812;2023-03-20T05:16:01;99553.72;;;11.42;77.72
39267;BME280;24967;51.154;13.812;2023-03-20T05:18:28;99562.75;;;11.23;78.61
39267;BME280;24967;51.154;13.812;2023-03-20T05:20:56;99565.69;;;11.38;78.24
39267;BME280;24967;51.154;13.812;2023-03-20T05:23:23;99566.41;;;11.49;77.66
39267;BME280;24967;51.154;13.812;2023-03-20T05:25:49;99569.25;;;11.47;77.50
39267;BME280;24967;51.154;13.812;2023-03-20T05:28:15;99571.16;;;11.37;78.17
39267;BME280;24967;51.154;13.812;2023-03-20T05:30:42;99574.31;;;11.40;78.40
39267;BME280;24967;51.154;13.812;2023-03-20T05:33:08;99573.31;;;11.59;77.69
39267;BME280;24967;51.154;13.812;2023-03-20T05:35:35;99584.59;;;11.53;77.54
39267;BME280;24967;51.154;13.812;2023-03-20T05:38:03;99571.47;;;11.34;78.63
39267;BME280;24967;51.154;13.812;2023-03-20T05:40:29;99589.22;;;11.51;78.14
39267;BME280;24967;51.154;13.812;2023-03-20T05:42:55;99584.72;;;11.52;77.79
39267;BME280;24967;51.154;13.812;2023-03-20T05:45:22;99584.41;;;11.29;78.81
39267;BME280;24967;51.154;13.812;2023-03-20T05:47:48;99583.34;;;11.21;79.41
39267;BME280;24967;51.154;13.812;2023-03-20T05:50:15;99585.84;;;11.41;78.97
39267;BME280;24967;51.154;13.812;2023-03-20T05:52:42;99588.13;;;11.36;79.15
39267;BME280;24967;51.154;13.812;2023-03-20T05:55:09;99593.38;;;11.28;79.49
39267;BME280;24967;51.154;13.812;2023-03-20T05:57:36;99597.78;;;11.19;79.91
39267;BME280;24967;51.154;13.812;2023-03-20T06:00:03;99591.84;;;11.25;79.84
39267;BME280;24967;51.154;13.812;2023-03-20T06:02:30;99590.78;;;11.18;80.47
39267;BME280;24967;51.154;13.812;2023-03-20T06:04:56;99594.66;;;11.23;80.23
39267;BME280;24967;51.154;13.812;2023-03-20T06:07:23;99596.34;;;11.07;80.95
39267;BME280;24967;51.154;13.812;2023-03-20T06:09:49;99600.91;;;11.14;81.14
39267;BME280;24967;51.154;13.812;2023-03-20T06:12:17;99587.31;;;11.17;80.51
39267;BME280;24967;51.154;13.812;2023-03-20T06:14:43;99597.25;;;11.15;80.76
39267;BME280;24967;51.154;13.812;2023-03-20T06:17:10;99594.19;;;11.28;80.52
39267;BME280;24967;51.154;13.812;2023-03-20T06:19:36;99605.91;;;11.53;79.52
39267;BME280;24967;51.154;13.812;2023-03-20T06:22:03;99607.00;;;11.68;78.75
39267;BME280;24967;51.154;13.812;2023-03-20T06:24:30;99605.97;;;11.43;79.91
39267;BME280;24967;51.154;13.812;2023-03-20T06:26:56;99604.69;;;11.30;80.65
39267;BME280;24967;51.154;13.812;2023-03-20T06:29:24;99612.75;;;11.38;80.49
39267;BME280;24967;51.154;13.812;2023-03-20T06:31:51;99612.44;;;11.41;80.06
39267;BME280;24967;51.154;13.812;2023-03-20T06:34:17;99605.66;;;11.46;80.14
39267;BME280;24967;51.154;13.812;2023-03-20T06:36:44;99611.56;;;11.58;79.69
39267;BME280;24967;51.154;13.812;2023-03-20T06:39:11;99616.13;;;11.66;78.75
39267;BME280;24967;51.154;13.812;2023-03-20T06:41:37;99612.63;;;11.65;78.77
39267;BME280;24967;51.154;13.812;2023-03-20T06:44:04;99613.81;;;11.45;79.63
39267;BME280;24967;51.154;13.812;2023-03-20T06:46:32;99609.53;;;11.34;80.21
39267;BME280;24967;51.154;13.812;2023-03-20T06:48:58;99613.56;;;11.56;79.28
39267;BME280;24967;51.154;13.812;2023-03-20T06:51:25;99613.66;;;11.73;79.02
39267;BME280;24967;51.154;13.812;2023-03-20T06:53:52;99611.25;;;11.61;79.35
39267;BME280;24967;51.154;13.812;2023-03-20T06:56:18;99613.09;;;11.61;79.62
39267;BME280;24967;51.154;13.812;2023-03-20T06:58:45;99615.22;;;11.57;79.85
39267;BME280;24967;51.154;13.812;2023-03-20T07:01:13;99614.88;;;11.78;79.24
39267;BME280;24967;51.154;13.812;2023-03-20T07:03:42;99620.09;;;11.62;79.33
39267;BME280;24967;51.154;13.812;2023-03-20T07:06:09;99615.97;;;11.67;79.66
39267;BME280;24967;51.154;13.812;2023-03-20T07:08:38;99605.00;;;11.70;79.83
39267;BME280;24967;51.154;13.812;2023-03-20T07:11:05;99600.56;;;11.79;79.71
39267;BME280;24967;51.154;13.812;2023-03-20T07:13:32;99608.47;;;11.89;79.61
39267;BME280;24967;51.154;13.812;2023-03-20T07:16:00;99611.00;;;11.73;79.58
39267;BME280;24967;51.154;13.812;2023-03-20T07:18:26;99612.75;;;12.08;78.95
39267;BME280;24967;51.154;13.812;2023-03-20T07:20:58;99620.44;;;12.11;77.74
39267;BME280;24967;51.154;13.812;2023-03-20T07:23:26;99616.06;;;12.02;78.74
39267;BME280;24967;51.154;13.812;2023-03-20T07:25:52;99617.84;;;12.27;78.00
39267;BME280;24967;51.154;13.812;2023-03-20T07:28:19;99611.09;;;12.41;77.26
39267;BME280;24967;51.154;13.812;2023-03-20T07:30:45;99624.69;;;12.30;77.90
39267;BME280;24967;51.154;13.812;2023-03-20T07:33:11;99627.09;;;12.41;77.95
39267;BME280;24967;51.154;13.812;2023-03-20T07:35:38;99625.38;;;12.32;78.00
39267;BME280;24967;51.154;13.812;2023-03-20T07:38:06;99627.75;;;12.43;77.50
39267;BME280;24967;51.154;13.812;2023-03-20T07:40:32;99631.19;;;12.70;77.46
39267;BME280;24967;51.154;13.812;2023-03-20T07:42:59;99633.38;;;12.40;77.09
39267;BME280;24967;51.154;13.812;2023-03-20T07:45:25;99636.38;;;12.79;77.52
39267;BME280;24967;51.154;13.812;2023-03-20T07:47:52;99632.91;;;13.03;77.05
39267;BME280;24967;51.154;13.812;2023-03-20T07:50:18;99636.50;;;13.28;77.53
39267;BME280;24967;51.154;13.812;2023-03-20T07:52:45;99634.00;;;13.27;76.43
39267;BME280;24967;51.154;13.812;2023-03-20T07:55:14;99633.13;;;13.18;75.17
39267;BME280;24967;51.154;13.812;2023-03-20T07:57:40;99636.78;;;13.17;74.48
39267;BME280;24967;51.154;13.812;2023-03-20T08:00:08;99638.19;;;13.29;75.08
39267;BME280;24967;51.154;13.812;2023-03-20T08:02:34;99645.59;;;13.10;75.03
39267;BME280;24967;51.154;13.812;2023-03-20T08:05:01;99641.63;;;13.22;74.86
39267;BME280;24967;51.154;13.812;2023-03-20T08:07:28;99643.00;;;13.26;73.97
39267;BME280;24967;51.154;13.812;2023-03-20T08:09:55;99643.28;;;13.06;74.69
39267;BME280;24967;51.154;13.812;2023-03-20T08:12:22;99641.69;;;13.30;74.42
39267;BME280;24967;51.154;13.812;2023-03-20T08:14:49;99643.47;;;13.21;74.78
39267;BME280;24967;51.154;13.812;2023-03-20T08:17:16;99643.13;;;13.08;75.11
39267;BME280;24967;51.154;13.812;2023-03-20T08:19:42;99643.59;;;13.03;76.08
39267;BME280;24967;51.154;13.812;2023-03-20T08:22:09;99641.47;;;13.23;75.89
39267;BME280;24967;51.154;13.812;2023-03-20T08:24:37;99645.16;;;13.31;75.30
39267;BME280;24967;51.154;13.812;2023-03-20T08:27:03;99640.63;;;13.15;75.49
39267;BME280;24967;51.154;13.812;2023-03-20T08:29:31;99638.84;;;13.48;74.58
39267;BME280;24967;51.154;13.812;2023-03-20T08:31:57;99627.50;;;13.46;74.36
39267;BME280;24967;51.154;13.812;2023-03-20T08:34:24;99634.19;;;13.42;74.10
39267;BME280;24967;51.154;13.812;2023-03-20T08:36:51;99634.19;;;13.50;73.40
39267;BME280;24967;51.154;13.812;2023-03-20T08:39:17;99632.66;;;13.72;74.11
39267;BME280;24967;51.154;13.812;2023-03-20T08:41:44;99632.00;;;13.45;73.96
39267;BME280;24967;51.154;13.812;2023-03-20T08:44:11;99632.84;;;13.62;74.46
39267;BME280;24967;51.154;13.812;2023-03-20T08:46:38;99640.00;;;13.70;73.66
39267;BME280;24967;51.154;13.812;2023-03-20T08:49:05;99639.00;;;13.63;73.89
39267;BME280;24967;51.154;13.812;2023-03-20T08:51:32;99643.50;;;13.70;73.71
39267;BME280;24967;51.154;13.812;2023-03-20T08:53:58;99640.16;;;13.77;74.06
39267;BME280;24967;51.154;13.812;2023-03-20T08:56:25;99638.47;;;14.00;74.13
39267;BME280;24967;51.154;13.812;2023-03-20T08:58:51;99643.78;;;14.16;72.80
39267;BME280;24967;51.154;13.812;2023-03-20T09:01:20;99640.09;;;14.09;72.34
39267;BME280;24967;51.154;13.812;2023-03-20T09:03:48;99648.13;;;14.09;72.03
39267;BME280;24967;51.154;13.812;2023-03-20T09:06:15;99650.56;;;14.35;70.70
39267;BME280;24967;51.154;13.812;2023-03-20T09:08:41;99648.25;;;14.24;71.09
39267;BME280;24967;51.154;13.812;2023-03-20T09:11:08;99649.47;;;14.13;71.50
39267;BME280;24967;51.154;13.812;2023-03-20T09:13:34;99651.00;;;14.08;72.00
39267;BME280;24967;51.154;13.812;2023-03-20T09:16:01;99649.88;;;13.86;72.05
39267;BME280;24967;51.154;13.812;2023-03-20T09:18:28;99650.69;;;13.70;73.10
39267;BME280;24967;51.154;13.812;2023-03-20T09:20:56;99644.50;;;13.61;73.42
39267;BME280;24967;51.154;13.812;2023-03-20T09:23:23;99655.03;;;13.55;74.09
39267;BME280;24967;51.154;13.812;2023-03-20T09:25:49;99660.06;;;13.49;74.14
39267;BME280;24967;51.154;13.812;2023-03-20T09:28:16;99659.38;;;13.47;74.31
39267;BME280;24967;51.154;13.812;2023-03-20T09:30:42;99658.69;;;13.37;75.19
39267;BME280;24967;51.154;13.812;2023-03-20T09:33:10;99653.72;;;13.59;75.22
39267;BME280;24967;51.154;13.812;2023-03-20T09:35:37;99671.06;;;13.55;75.11
39267;BME280;24967;51.154;13.812;2023-03-20T09:38:04;99657.69;;;13.55;74.66
39267;BME280;24967;51.154;13.812;2023-03-20T09:40:37;99655.03;;;13.63;75.22
39267;BME280;24967;51.154;13.812;2023-03-20T09:43:19;99666.00;;;14.01;74.13
39267;BME280;24967;51.154;13.812;2023-03-20T09:45:58;99666.72;;;13.86;73.99
39267;BME280;24967;51.154;13.812;2023-03-20T09:48:32;99679.91;;;13.88;74.44
39267;BME280;24967;51.154;13.812;2023-03-20T09:51:06;99674.91;;;13.85;74.67
39267;BME280;24967;51.154;13.812;2023-03-20T09:53:39;99676.56;;;13.94;73.82
39267;BME280;24967;51.154;13.812;2023-03-20T09:56:13;99678.25;;;13.87;74.10
39267;BME280;24967;51.154;13.812;2023-03-20T09:58:41;99672.72;;;13.96;74.22
39267;BME280;24967;51.154;13.812;2023-03-20T10:01:12;99672.22;;;14.01;74.80
39267;BME280;24967;51.154;13.812;2023-03-20T10:03:42;99674.06;;;13.92;74.84
39267;BME280;24967;51.154;13.812;2023-03-20T10:06:12;99682.25;;;13.66;75.81
39267;BME280;24967;51.154;13.812;2023-03-20T10:08:40;99686.09;;;13.64;75.46
39267;BME280;24967;51.154;13.812;2023-03-20T10:11:18;99672.22;;;13.77;75.38
39267;BME280;24967;51.154;13.812;2023-03-20T10:13:58;99680.75;;;13.72;76.43
39267;BME280;24967;51.154;13.812;2023-03-20T10:16:41;99678.84;;;14.21;75.27
39267;BME280;24967;51.154;13.812;2023-03-20T10:19:16;99680.00;;;14.19;74.24
39267;BME280;24967;51.154;13.812;2023-03-20T10:21:48;99683.38;;;14.13;74.69
39267;BME280;24967;51.154;13.812;2023-03-20T10:24:21;99682.56;;;14.04;74.27
39267;BME280;24967;51.154;13.812;2023-03-20T10:26:52;99683.09;;;13.59;75.72
39267;BME280;24967;51.154;13.812;2023-03-20T10:29:28;99678.25;;;13.79;75.47
39267;BME280;24967;51.154;13.812;2023-03-20T10:32:01;99683.75;;;13.77;75.43
39267;BME280;24967;51.154;13.812;2023-03-20T10:34:48;99683.25;;;13.57;75.93
39267;BME280;24967;51.154;13.812;2023-03-20T10:37:29;99686.91;;;13.40;76.70
39267;BME280;24967;51.154;13.812;2023-03-20T10:40:08;99688.50;;;13.08;78.79
39267;BME280;24967;51.154;13.812;2023-03-20T10:42:41;99694.50;;;13.10;78.26
39267;BME280;24967;51.154;13.812;2023-03-20T10:45:22;99688.59;;;12.90;79.18
39267;BME280;24967;51.154;13.812;2023-03-20T10:47:54;99693.75;;;12.92;79.47
39267;BME280;24967;51.154;13.812;2023-03-20T10:50:27;99697.06;;;13.28;78.81
39267;BME280;24967;51.154;13.812;2023-03-20T10:52:54;99693.63;;;12.93;79.26
39267;BME280;24967;51.154;13.812;2023-03-20T10:55:25;99691.91;;;12.84;80.09
39267;BME280;24967;51.154;13.812;2023-03-20T10:57:57;99691.88;;;12.76;81.21
39267;BME280;24967;51.154;13.812;2023-03-20T11:00:25;99696.69;;;13.15;79.70
39267;BME280;24967;51.154;13.812;2023-03-20T11:02:52;99689.81;;;13.12;79.55
39267;BME280;24967;51.154;13.812;2023-03-20T11:05:28;99687.66;;;13.16;79.30
39267;BME280;24967;51.154;13.812;2023-03-20T11:08:04;99696.91;;;13.29;78.81
39267;BME280;24967;51.154;13.812;2023-03-20T11:10:34;99689.66;;;13.05;79.35
39267;BME280;24967;51.154;13.812;2023-03-20T11:13:13;99694.03;;;13.23;78.79
39267;BME280;24967;51.154;13.812;2023-03-20T11:15:41;99690.66;;;13.13;78.01
39267;BME280;24967;51.154;13.812;2023-03-20T11:18:11;99696.41;;;13.26;77.65
39267;BME280;24967;51.154;13.812;2023-03-20T11:20:43;99682.84;;;13.19;76.96
39267;BME280;24967;51.154;13.812;2023-03-20T11:23:14;99692.56;;;13.37;76.83
39267;BME280;24967;51.154;13.812;2023-03-20T11:25:49;99687.00;;;13.22;76.57
39267;BME280;24967;51.154;13.812;2023-03-20T11:28:20;99684.72;;;13.27;77.21
39267;BME280;24967;51.154;13.812;2023-03-20T11:30:56;99688.53;;;13.16;77.57
39267;BME280;24967;51.154;13.812;2023-03-20T11:33:25;99690.41;;;13.32;76.78
39267;BME280;24967;51.154;13.812;2023-03-20T11:35:54;99690.91;;;13.36;76.68
39267;BME280;24967;51.154;13.812;2023-03-20T11:38:22;99681.91;;;13.53;76.41
39267;BME280;24967;51.154;13.812;2023-03-20T11:40:50;99685.25;;;13.47;76.14
39267;BME280;24967;51.154;13.812;2023-03-20T11:43:18;99681.41;;;13.41;76.66
39267;BME280;24967;51.154;13.812;2023-03-20T11:45:47;99677.72;;;13.34;77.33
39267;BME280;24967;51.154;13.812;2023-03-20T11:48:17;99680.50;;;13.16;77.56
39267;BME280;24967;51.154;13.812;2023-03-20T11:50:46;99671.56;;;13.25;77.67
39267;BME280;24967;51.154;13.812;2023-03-20T11:53:20;99672.13;;;13.03;78.83
39267;BME280;24967;51.154;13.812;2023-03-20T11:56:01;99674.16;;;13.17;79.42
39267;BME280;24967;51.154;13.812;2023-03-20T11:58:28;99668.81;;;13.09;79.20
39267;BME280;24967;51.154;13.812;2023-03-20T12:00:56;99667.03;;;13.34;78.27
39267;BME280;24967;51.154;13.812;2023-03-20T12:03:36;99665.22;;;13.51;78.31
39267;BME280;24967;51.154;13.812;2023-03-20T12:06:05;99666.38;;;13.32;78.61
39267;BME280;24967;51.154;13.812;2023-03-20T12:08:34;99661.38;;;13.45;77.94
39267;BME280;24967;51.154;13.812;2023-03-20T12:11:08;99661.88;;;13.57;77.47
39267;BME280;24967;51.154;13.812;2023-03-20T12:13:43;99665.38;;;13.58;77.64
39267;BME280;24967;51.154;13.812;2023-03-20T12:16:14;99661.03;;;13.81;76.92
39267;BME280;24967;51.154;13.812;2023-03-20T12:18:44;99660.38;;;13.95;76.04
39267;BME280;24967;51.154;13.812;2023-03-20T12:21:15;99656.72;;;13.56;76.80
39267;BME280;24967;51.154;13.812;2023-03-20T12:23:48;99663.88;;;13.71;77.39
39267;BME280;24967;51.154;13.812;2023-03-20T12:26:23;99658.19;;;13.99;76.04
39267;BME280;24967;51.154;13.812;2023-03-20T12:28:53;99655.66;;;14.14;75.82
39267;BME280;24967;51.154;13.812;2023-03-20T12:31:24;99652.09;;;14.30;75.07
39267;BME280;24967;51.154;13.812;2023-03-20T12:33:53;99657.16;;;14.00;75.00
39267;BME280;24967;51.154;13.812;2023-03-20T12:36:27;99656.88;;;13.46;76.74
39267;BME280;24967;51.154;13.812;2023-03-20T12:38:54;99648.03;;;13.54;77.41
39267;BME280;24967;51.154;13.812;2023-03-20T12:41:25;99653.84;;;13.49;77.09
39267;BME280;24967;51.154;13.812;2023-03-20T12:44:16;99641.19;;;13.43;77.91
39267;BME280;24967;51.154;13.812;2023-03-20T12:46:48;99639.03;;;13.38;77.49
39267;BME280;24967;51.154;13.812;2023-03-20T12:49:27;99637.50;;;13.36;78.73
39267;BME280;24967;51.154;13.812;2023-03-20T12:52:03;99637.69;;;13.59;78.25
39267;BME280;24967;51.154;13.812;2023-03-20T12:57:27;99631.88;;;14.19;75.55
39267;BME280;24967;51.154;13.812;2023-03-20T13:00:08;99636.41;;;14.27;74.46
39267;BME280;24967;51.154;13.812;2023-03-20T13:02:46;99626.88;;;14.24;73.38
39267;BME280;24967;51.154;13.812;2023-03-20T13:05:21;99635.78;;;14.00;73.72
39267;BME280;24967;51.154;13.812;2023-03-20T13:08:01;99628.78;;;13.83;74.55